Time;durP1;ratioP1;P1;durP2;ratioP2;P2;SDS_P1;SDS_P2;PMS_P1;PMS_P2;Temp;Humidity;BMP_temperature;BMP_pressure;BME280_temperature;BME280_humidity;BME280_pressure;Samples;Min_cycle;Max_cycle;Signal;HPM_P1;HPM_P2
2024/02/20 00:00:41;;;;;;;9.63;5.73;;;8.50;99.90;;;-141.84;100.00;103783.25;5089056;28;20223;-53
2024/02/20 00:03:10;;;;;;;8.73;6.00;;;8.60;99.90;;;-141.84;100.00;103251.88;5090823;28;20656;-54
2024/02/20 00:05:38;;;;;;;8.03;5.70;;;8.60;99.90;;;-141.84;100.00;103251.88;5090507;28;20796;-53
2024/02/20 00:08:07;;;;;;;8.93;5.97;;;8.60;99.90;;;-141.84;100.00;101658.25;5089199;28;20239;-50
2024/02/20 00:10:37;;;;;;;10.83;6.20;;;8.60;99.90;;;-141.84;100.00;105643.53;5090906;28;20243;-52
2024/02/20 00:13:05;;;;;;;9.70;6.40;;;8.60;99.90;;;-141.84;100.00;104846.16;5091897;28;20220;-54
2024/02/20 00:15:34;;;;;;;8.07;5.60;;;8.70;99.90;;;-141.84;100.00;106972.81;5091162;28;20769;-66
2024/02/20 00:18:04;;;;;;;9.60;6.67;;;8.60;99.90;;;-141.84;100.00;106706.94;5092498;28;20279;-66
2024/02/20 00:20:33;;;;;;;9.70;6.40;;;8.60;99.90;;;-141.84;100.00;103783.25;5090302;28;20223;-66
2024/02/20 00:23:01;;;;;;;10.43;6.83;;;8.60;99.90;;;-141.84;100.00;106972.81;5082579;28;20255;-67
2024/02/20 00:25:30;;;;;;;9.67;6.77;;;8.60;99.90;;;-141.84;100.00;110164.91;5072662;28;20224;-66
2024/02/20 00:27:58;;;;;;;10.87;7.20;;;8.50;99.90;;;-141.84;100.00;108834.56;5091235;28;20265;-67
2024/02/20 00:30:27;;;;;;;10.00;6.70;;;8.80;99.90;;;-141.84;100.00;106972.81;5090627;28;20220;-67
2024/02/20 00:32:55;;;;;;;10.30;6.20;;;8.50;99.90;;;-141.84;100.00;103783.25;5092973;28;20188;-67
2024/02/20 00:35:26;;;;;;;7.57;5.90;;;8.60;99.90;;;-141.84;100.00;102455.00;5090953;28;20235;-67
2024/02/20 00:37:54;;;;;;;7.77;5.87;;;8.50;99.90;;;-141.84;100.00;104580.41;5090802;28;20228;-67
2024/02/20 00:40:24;;;;;;;11.63;6.63;;;8.50;99.90;;;-141.84;99.69;100861.66;5090856;28;20307;-67
2024/02/20 00:42:53;;;;;;;9.47;6.47;;;8.60;99.90;;;-141.84;99.02;99003.56;5091474;28;20223;-67
2024/02/20 00:45:23;;;;;;;7.40;5.87;;;8.60;99.90;;;-141.84;98.46;97411.59;5090346;28;20975;-67
2024/02/20 00:47:53;;;;;;;8.47;5.80;;;8.60;99.90;;;-141.84;99.86;100330.69;5091279;28;20184;-66
2024/02/20 00:50:23;;;;;;;7.53;5.30;;;8.60;99.90;;;-141.84;98.02;97676.88;5084645;28;20208;-67
2024/02/20 00:52:54;;;;;;;7.63;5.50;;;8.60;99.90;;;-141.84;100.00;101127.16;5054565;28;20252;-67
2024/02/20 00:55:23;;;;;;;8.63;5.80;;;8.60;99.90;;;-141.84;100.00;102986.25;5092638;28;20220;-67
2024/02/20 00:57:57;;;;;;;7.57;5.53;;;8.50;99.90;;;-141.84;99.68;100596.16;5092696;28;20803;-67
2024/02/20 01:00:26;;;;;;;7.70;5.03;;;8.60;99.90;;;-141.84;100.00;101392.69;5093686;28;20253;-68
2024/02/20 01:02:54;;;;;;;7.47;5.40;;;8.50;99.90;;;-141.84;99.30;99534.38;5091502;28;20223;-66
2024/02/20 01:05:23;;;;;;;8.33;5.27;;;8.50;99.90;;;-141.84;98.39;97676.88;5093097;28;20204;-68
2024/02/20 01:07:53;;;;;;;9.63;5.47;;;8.50;99.90;;;-141.84;99.52;99003.56;5035913;28;20240;-68
2024/02/20 01:10:21;;;;;;;9.80;6.00;;;8.40;99.90;;;-141.84;99.15;100065.22;5083894;28;20246;-66
2024/02/20 01:12:50;;;;;;;7.60;5.40;;;8.40;99.90;;;-141.84;97.92;96350.63;5040591;28;20273;-67
2024/02/20 01:15:19;;;;;;;7.67;5.50;;;8.40;99.90;;;-141.84;100.00;100861.66;5089632;28;20223;-67
2024/02/20 01:17:47;;;;;;;9.83;5.40;;;8.30;99.90;;;-141.84;100.00;104580.41;5092563;28;20223;-67
2024/02/20 01:20:15;;;;;;;10.67;5.70;;;8.30;99.90;;;-141.84;99.68;100596.16;5091862;28;20235;-67
2024/02/20 01:22:45;;;;;;;8.30;5.27;;;8.30;99.90;;;-141.84;98.04;96615.84;5092019;28;20733;-67
2024/02/20 01:25:15;;;;;;;7.17;4.80;;;8.30;99.90;;;-141.84;95.29;90255.47;5091713;28;20301;-67
2024/02/20 01:27:43;;;;;;;6.60;4.90;;;8.40;99.90;;;-141.84;96.39;91314.81;5091821;28;20227;-67
2024/02/20 01:30:13;;;;;;;9.20;5.10;;;8.30;99.90;;;-141.84;96.73;93434.41;5091121;28;20326;-65
2024/02/20 01:32:41;;;;;;;6.53;5.00;;;8.30;99.90;;;-141.84;97.91;95555.09;5091331;28;20567;-67
2024/02/20 01:35:11;;;;;;;7.07;4.80;;;8.30;99.90;;;-141.84;99.84;99268.97;5091005;28;20230;-67
2024/02/20 01:37:41;;;;;;;5.80;4.40;;;8.30;99.90;;;-141.84;97.92;97146.31;5091467;28;20220;-66
2024/02/20 01:40:10;;;;;;;6.57;4.87;;;8.30;99.90;;;-141.84;96.51;92374.47;5090855;28;20943;-66
2024/02/20 01:42:40;;;;;;;6.70;4.73;;;8.40;99.90;;;-141.84;98.60;97146.31;5090816;28;20800;-66
2024/02/20 01:45:10;;;;;;;7.70;4.97;;;8.40;99.90;;;-141.84;99.05;99003.56;5091261;28;20200;-66
2024/02/20 01:47:39;;;;;;;5.93;4.63;;;8.30;99.90;;;-141.84;98.35;96615.84;5091766;28;20191;-66
2024/02/20 01:50:08;;;;;;;6.50;4.50;;;8.30;99.90;;;-141.84;99.24;99003.56;5090130;28;20226;-66
2024/02/20 01:52:37;;;;;;;6.00;4.33;;;8.30;99.90;;;-141.84;96.38;92639.44;5090991;28;20212;-66
2024/02/20 01:55:06;;;;;;;5.37;4.17;;;8.30;99.90;;;-141.84;95.90;90520.28;5090564;28;20225;-66
2024/02/20 01:57:35;;;;;;;6.70;4.60;;;8.40;99.90;;;-141.84;94.22;87079.03;5090369;28;20216;-65
2024/02/20 02:00:07;;;;;;;6.47;4.17;;;8.40;99.90;;;-141.84;93.24;82319.06;5090556;28;20220;-66
2024/02/20 02:02:35;;;;;;;6.83;4.70;;;8.40;99.90;;;-141.84;93.83;84433.91;5090723;28;20287;-66
2024/02/20 02:05:05;;;;;;;7.83;4.27;;;8.40;99.90;;;-141.84;91.78;77564.72;5083120;28;20275;-67
2024/02/20 02:07:33;;;;;;;6.60;4.73;;;8.40;99.90;;;-141.84;93.46;82583.34;5091436;28;20231;-67
2024/02/20 02:10:01;;;;;;;5.67;4.63;;;8.50;99.90;;;-141.84;94.03;85756.25;5090432;28;20220;-68
2024/02/20 02:12:30;;;;;;;6.67;4.83;;;8.30;99.90;;;-141.84;94.51;86549.84;5089288;28;20224;-67
2024/02/20 02:14:58;;;;;;;5.30;4.40;;;8.40;99.90;;;-141.84;93.42;83640.72;5084151;28;20240;-66
2024/02/20 02:17:27;;;;;;;8.13;4.73;;;8.40;99.90;;;-141.84;93.33;83376.34;5088176;28;20558;-66
2024/02/20 02:19:56;;;;;;;7.67;4.30;;;8.50;99.90;;;-141.84;94.02;84698.34;5090051;28;20327;-67
2024/02/20 02:22:24;;;;;;;6.83;4.50;;;8.50;99.90;;;-141.84;90.30;72552.38;5088224;28;20521;-67
2024/02/20 02:24:52;;;;;;;5.83;4.10;;;8.60;99.90;;;-141.84;91.39;75981.22;5085218;28;20242;-66
2024/02/20 02:27:22;;;;;;;5.63;4.20;;;8.50;99.90;;;-141.84;91.65;75981.22;5090291;28;20223;-65
2024/02/20 02:29:50;;;;;;;5.47;4.00;;;8.50;99.90;;;-141.84;92.04;77828.72;5091126;28;20616;-66
2024/02/20 02:32:18;;;;;;;5.30;3.87;;;8.50;99.90;;;-141.84;94.56;86020.75;5089780;28;20235;-66
2024/02/20 02:34:48;;;;;;;5.37;4.13;;;8.50;99.90;;;-141.84;92.51;82583.34;5092199;28;20247;-66
2024/02/20 02:37:17;;;;;;;5.27;4.00;;;8.50;99.90;;;-141.84;91.58;76772.88;5090727;28;20223;-66
2024/02/20 02:39:45;;;;;;;5.77;3.43;;;8.50;99.90;;;-141.84;91.84;77564.72;5088981;28;20224;-67
2024/02/20 02:42:14;;;;;;;6.07;4.33;;;8.50;99.90;;;-141.84;93.97;84433.91;5090489;28;20315;-65
2024/02/20 02:44:46;;;;;;;6.70;4.30;;;8.40;99.90;;;-141.84;90.91;74134.56;5095340;28;20264;-65
2024/02/20 02:47:14;;;;;;;6.33;3.77;;;8.50;99.90;;;-141.84;91.22;76245.09;5094345;28;20709;-67
2024/02/20 02:49:45;;;;;;;5.50;3.90;;;8.50;99.90;;;-141.84;91.33;75453.50;5096463;28;20286;-66
2024/02/20 02:52:13;;;;;;;5.23;4.03;;;8.40;99.90;;;-141.84;91.26;75453.50;5094363;28;20231;-66
2024/02/20 02:54:41;;;;;;;5.30;3.97;;;8.50;99.90;;;-141.84;92.56;80205.34;5094872;28;20223;-67
2024/02/20 02:57:11;;;;;;;4.43;3.63;;;8.50;99.90;;;-141.84;92.74;80733.66;5094308;28;20287;-66
2024/02/20 02:59:39;;;;;;;6.30;4.40;;;8.40;99.90;;;-141.84;91.64;78356.72;5095114;28;20233;-66
2024/02/20 03:02:12;;;;;;;5.30;3.80;;;8.50;99.90;;;-141.84;91.57;77036.81;5094575;28;20258;-66
2024/02/20 03:04:40;;;;;;;5.20;3.77;;;8.50;99.90;;;-141.84;92.02;77564.72;5093672;28;20311;-66
2024/02/20 03:07:09;;;;;;;7.53;4.13;;;8.40;99.90;;;-141.84;94.19;84698.34;5093869;28;20711;-66
2024/02/20 03:09:38;;;;;;;4.70;4.00;;;8.40;99.90;;;-141.84;94.81;86814.44;5093402;28;20228;-66
2024/02/20 03:12:07;;;;;;;5.23;3.73;;;8.40;99.90;;;-141.84;92.86;82054.78;5092930;28;20219;-67
2024/02/20 03:14:35;;;;;;;6.07;3.90;;;8.40;99.90;;;-141.84;93.69;83640.72;5092859;28;20196;-66
2024/02/20 03:17:05;;;;;;;6.43;4.23;;;8.40;99.90;;;-141.84;94.56;86549.84;5088535;28;20358;-66
2024/02/20 03:19:34;;;;;;;4.60;4.07;;;8.40;99.90;;;-141.84;92.26;81262.06;5087278;28;20220;-66
2024/02/20 03:22:04;;;;;;;6.67;4.13;;;8.50;99.90;;;-141.84;91.05;74398.31;5094596;28;20239;-66
2024/02/20 03:24:33;;;;;;;4.70;3.80;;;8.50;99.90;;;-141.84;93.23;81790.53;5091502;28;20228;-66
2024/02/20 03:27:01;;;;;;;6.73;3.90;;;8.50;99.90;;;-141.84;91.76;77828.72;5093900;28;20192;-64
2024/02/20 03:29:30;;;;;;;4.40;3.53;;;8.50;99.90;;;-141.84;93.03;81790.53;5094325;28;20249;-66
2024/02/20 03:31:59;;;;;;;5.50;3.87;;;8.50;99.90;;;-141.84;93.46;83112.00;5093476;28;20220;-66
2024/02/20 03:34:27;;;;;;;5.07;3.43;;;8.50;99.90;;;-141.84;94.01;85227.25;5085180;28;20269;-65
2024/02/20 03:36:57;;;;;;;4.00;3.50;;;8.50;99.90;;;-141.84;95.28;88402.22;5094342;28;20251;-66
2024/02/20 03:39:25;;;;;;;5.50;3.87;;;8.50;99.90;;;-141.84;94.85;88402.22;5093201;28;20220;-65
2024/02/20 03:41:53;;;;;;;5.20;3.60;;;8.50;99.90;;;-141.84;93.84;84962.78;5093536;28;20208;-65
2024/02/20 03:44:23;;;;;;;5.30;4.07;;;8.50;99.90;;;-141.84;92.54;80733.66;5089288;28;20287;-66
2024/02/20 03:46:51;;;;;;;4.73;3.43;;;8.50;99.90;;;-141.84;93.74;84433.91;5093140;28;20220;-65
2024/02/20 03:49:19;;;;;;;5.57;4.00;;;8.50;99.90;;;-141.84;94.83;87608.25;5093042;28;20216;-66
2024/02/20 03:51:49;;;;;;;4.97;3.80;;;8.50;99.90;;;-141.84;94.01;87079.03;5079147;28;20212;-66
2024/02/20 03:54:19;;;;;;;5.17;3.97;;;8.50;99.90;;;-141.84;91.77;78092.72;5090161;28;20723;-64
2024/02/20 03:56:48;;;;;;;7.53;4.07;;;8.60;99.90;;;-141.84;93.06;80733.66;5093153;28;20598;-65
2024/02/20 03:59:16;;;;;;;5.60;4.33;;;8.60;99.90;;;-141.84;93.84;85227.25;5090724;28;20252;-65
2024/02/20 04:01:45;;;;;;;5.40;4.30;;;8.60;99.90;;;-141.84;94.42;85756.25;5089196;28;20960;-65
2024/02/20 04:04:15;;;;;;;5.00;3.77;;;8.50;99.90;;;-141.84;92.10;79148.88;5091869;28;20220;-66
2024/02/20 04:06:44;;;;;;;5.97;3.67;;;8.60;99.90;;;-141.84;89.77;69653.38;5094325;28;20250;-65
2024/02/20 04:09:12;;;;;;;4.97;3.50;;;8.60;99.90;;;-141.84;89.64;68863.09;5093518;28;20236;-66
2024/02/20 04:11:42;;;;;;;5.20;3.77;;;8.60;99.90;;;-141.84;87.54;59654.75;5093433;28;20271;-66
2024/02/20 04:14:11;;;;;;;4.40;3.00;;;8.60;99.90;;;-141.84;87.19;55714.84;5093330;28;20224;-65
2024/02/20 04:16:39;;;;;;;4.00;2.90;;;8.60;99.90;;;-141.84;84.76;41825.19;5093257;28;20574;-65
2024/02/20 04:19:07;;;;;;;3.70;3.00;;;8.60;99.90;;;-141.84;83.53;31788.56;5092849;28;20224;-66
2024/02/20 04:21:35;;;;;;;3.27;2.83;;;8.60;99.90;;;-141.84;86.11;47060.84;5092305;28;20789;-66
2024/02/20 04:24:04;;;;;;;4.50;2.90;;;8.60;99.90;;;-141.84;85.10;42610.09;5092733;28;20195;-67
2024/02/20 04:26:32;;;;;;;3.17;2.87;;;8.60;99.90;;;-141.84;84.96;43918.63;5092991;28;20238;-66
2024/02/20 04:29:02;;;;;;;3.07;2.50;;;8.60;99.90;;;-141.84;84.12;37051.69;5086106;28;20216;-66
2024/02/20 04:31:31;;;;;;;7.37;2.70;;;8.60;99.90;;;-141.84;83.38;29434.69;5092259;28;20244;-66
2024/02/20 04:33:59;;;;;;;3.17;2.80;;;8.60;99.90;;;-141.84;85.05;40488.75;5092206;28;20238;-66
2024/02/20 04:36:28;;;;;;;3.67;2.30;;;8.50;99.90;;;-141.84;83.56;31042.50;5083879;28;20228;-65
2024/02/20 04:38:58;;;;;;;2.97;2.20;;;8.60;99.90;;;-141.84;82.45;25659.22;5092719;28;20226;-65
2024/02/20 04:41:26;;;;;;;3.03;2.50;;;8.60;99.90;;;-141.84;83.82;31545.97;5092276;28;20212;-66
2024/02/20 04:43:54;;;;;;;5.23;2.50;;;8.60;99.90;;;-141.84;85.47;44965.75;5092358;28;20274;-67
2024/02/20 04:46:28;;;;;;;4.43;2.70;;;8.50;99.90;;;-141.84;86.04;47584.78;5091965;28;20224;-65
2024/02/20 04:48:57;;;;;;;2.60;2.27;;;8.50;99.90;;;-141.84;87.96;58078.34;5091337;28;20223;-65
2024/02/20 04:51:25;;;;;;;2.93;2.60;;;8.40;99.90;;;-141.84;87.11;56239.94;5091673;28;20230;-66
2024/02/20 04:53:54;;;;;;;5.50;2.50;;;8.40;99.90;;;-141.84;86.00;48632.88;5091483;28;20291;-65
2024/02/20 04:56:22;;;;;;;4.00;2.50;;;8.50;99.90;;;-141.84;86.00;50205.56;5091934;28;20291;-66
2024/02/20 04:58:50;;;;;;;3.17;2.40;;;8.40;99.90;;;-141.84;86.02;47584.78;5091824;28;20778;-66
2024/02/20 05:01:19;;;;;;;2.53;2.33;;;8.40;99.90;;;-141.84;84.91;43395.16;5088211;28;20281;-65
2024/02/20 05:03:48;;;;;;;3.47;2.47;;;8.40;99.90;;;-141.84;85.27;43133.44;5091916;28;20657;-65
2024/02/20 05:06:17;;;;;;;2.10;1.80;;;8.40;99.90;;;-141.84;80.57;21131.03;5091729;28;20216;-65
2024/02/20 05:08:45;;;;;;;2.93;1.87;;;8.50;99.90;;;-141.84;81.28;21997.19;5091832;28;20220;-66
2024/02/20 05:11:13;;;;;;;2.90;1.70;;;8.50;99.90;;;-141.84;82.33;24955.03;5091445;28;20265;-65
2024/02/20 05:13:42;;;;;;;3.07;1.70;;;8.30;99.90;;;-141.84;84.11;32153.50;5091394;28;20307;-65
2024/02/20 05:16:10;;;;;;;3.20;2.13;;;8.20;99.90;;;-141.84;85.79;42610.09;5091500;28;20220;-66
2024/02/20 05:18:38;;;;;;;2.00;1.67;;;8.10;99.90;;;-141.84;87.49;55452.34;5091258;28;20231;-66
2024/02/20 05:21:09;;;;;;;1.90;1.43;;;7.90;99.90;;;-141.84;86.49;48632.88;5091724;28;20188;-65
2024/02/20 05:23:37;;;;;;;2.00;1.80;;;7.90;99.90;;;-141.84;89.98;66493.19;5092003;28;20281;-65
2024/02/20 05:26:05;;;;;;;2.13;1.63;;;7.70;99.90;;;-141.84;90.87;71761.53;5092121;28;20215;-66
2024/02/20 05:28:33;;;;;;;2.83;1.60;;;7.70;99.90;;;-141.84;91.17;72288.75;5091620;28;20259;-65
2024/02/20 05:31:02;;;;;;;2.43;1.60;;;7.60;99.90;;;-141.84;90.87;71761.53;5091684;28;20226;-66
2024/02/20 05:33:31;;;;;;;3.67;1.60;;;7.60;99.90;;;-141.84;88.99;63072.50;5091748;28;20264;-66
2024/02/20 05:35:59;;;;;;;3.33;1.43;;;7.60;99.90;;;-141.84;88.50;61757.66;5089066;28;20202;-65
2024/02/20 05:38:28;;;;;;;1.80;1.30;;;7.60;99.90;;;-141.84;87.59;55714.84;5091785;28;20354;-66
2024/02/20 05:40:57;;;;;;;2.40;1.33;;;7.70;99.90;;;-141.84;85.55;43918.63;5088722;28;20629;-65
2024/02/20 05:43:25;;;;;;;1.10;1.00;;;7.70;99.90;;;-141.84;84.38;32924.22;5090596;28;20312;-65
2024/02/20 05:45:53;;;;;;;2.40;1.17;;;7.80;99.90;;;-141.84;82.97;27230.88;5087010;28;20277;-67
2024/02/20 05:48:22;;;;;;;2.27;1.10;;;7.80;99.90;;;-141.84;82.40;23864.41;5090733;28;20227;-67
2024/02/20 05:50:51;;;;;;;1.37;1.03;;;7.90;99.90;;;-141.84;81.98;23207.31;5089115;28;20207;-69
2024/02/20 05:53:20;;;;;;;3.80;1.30;;;7.90;99.90;;;-141.84;81.46;22021.59;5090938;28;21131;-66
2024/02/20 05:55:50;;;;;;;4.97;1.50;;;8.00;99.90;;;-141.84;80.00;19992.69;5090608;28;20623;-66
2024/02/20 05:58:18;;;;;;;1.90;1.30;;;8.00;99.90;;;-141.84;80.49;20488.63;5090175;28;20282;-66
2024/02/20 06:00:48;;;;;;;3.63;1.40;;;8.00;99.90;;;-141.84;81.47;21759.28;5091053;28;20386;-66
2024/02/20 06:03:16;;;;;;;2.03;1.47;;;8.10;99.90;;;-141.84;81.04;21606.78;5091445;28;20227;-66
2024/02/20 06:05:48;;;;;;;2.90;1.50;;;8.10;99.90;;;-141.84;80.93;21431.94;5091145;28;20779;-66
2024/02/20 06:08:16;;;;;;;2.37;1.63;;;8.10;99.90;;;-141.84;80.70;21322.13;5090747;28;20263;-67
2024/02/20 06:10:45;;;;;;;1.40;1.30;;;8.10;99.90;;;-141.84;80.61;20921.63;5090999;28;20220;-66
2024/02/20 06:13:14;;;;;;;1.87;1.27;;;8.10;99.90;;;-141.84;79.47;19600.44;5080167;28;20256;-66
2024/02/20 06:15:43;;;;;;;4.97;1.60;;;8.10;99.90;;;-141.84;79.96;20224.41;5090927;28;20215;-66
2024/02/20 06:18:11;;;;;;;1.73;1.40;;;8.10;99.90;;;-141.84;79.45;19608.56;5086989;28;20231;-65
2024/02/20 06:20:41;;;;;;;3.23;1.40;;;8.10;99.90;;;-141.84;79.62;19667.50;5091149;28;20283;-66
2024/02/20 06:23:09;;;;;;;1.80;1.30;;;8.20;99.90;;;-141.84;80.81;20872.84;5090481;28;20227;-66
2024/02/20 06:25:37;;;;;;;1.83;1.30;;;8.10;99.90;;;-141.84;81.71;23327.34;5090738;28;20219;-66
2024/02/20 06:28:06;;;;;;;2.53;1.70;;;8.10;99.90;;;-141.84;81.04;21592.56;5090558;28;20591;-65
2024/02/20 06:30:36;;;;;;;2.90;1.40;;;8.10;99.90;;;-141.84;81.91;23223.59;5090997;28;20224;-66
2024/02/20 06:33:04;;;;;;;2.70;1.47;;;8.10;99.90;;;-141.84;83.54;28898.91;5090251;28;20192;-65
2024/02/20 06:35:33;;;;;;;2.33;1.40;;;8.10;99.90;;;-141.84;85.37;42086.81;5087533;28;20233;-66
2024/02/20 06:38:01;;;;;;;2.60;1.60;;;8.10;99.90;;;-141.84;85.20;42348.44;5089422;28;20299;-66
2024/02/20 06:40:30;;;;;;;1.83;1.20;;;8.00;99.90;;;-141.84;86.14;46798.88;5087396;28;20262;-66
2024/02/20 06:42:58;;;;;;;1.70;1.30;;;8.10;99.90;;;-141.84;87.71;57553.00;5089791;28;20220;-67
2024/02/20 06:45:27;;;;;;;3.07;1.20;;;8.00;99.90;;;-141.84;85.82;46275.03;5090936;28;20638;-66
2024/02/20 06:47:57;;;;;;;1.60;1.20;;;8.10;99.90;;;-141.84;84.74;39352.94;5082165;28;20200;-66
2024/02/20 06:50:25;;;;;;;2.80;1.40;;;8.10;99.90;;;-141.84;83.73;30294.56;5090492;28;20188;-66
2024/02/20 06:52:53;;;;;;;2.03;1.30;;;8.10;99.90;;;-141.84;83.41;32177.94;5086673;28;20299;-67
2024/02/20 06:55:22;;;;;;;2.27;1.57;;;8.10;99.90;;;-141.84;82.63;26231.22;5089913;28;20293;-67
2024/02/20 06:57:54;;;;;;;2.63;1.17;;;8.10;99.90;;;-141.84;81.97;23970.19;5089898;28;20568;-67
2024/02/20 07:00:24;;;;;;;1.63;1.30;;;8.10;99.90;;;-141.84;81.47;22733.41;5089866;28;20705;-66
2024/02/20 07:02:52;;;;;;;1.60;1.10;;;8.20;99.90;;;-141.84;82.30;24910.25;5089975;28;20277;-61
2024/02/20 07:05:22;;;;;;;2.90;1.30;;;8.20;99.90;;;-141.84;83.38;30431.09;5090550;28;20293;-67
2024/02/20 07:07:50;;;;;;;2.07;0.93;;;8.20;99.90;;;-141.84;84.19;33584.97;5089420;28;20323;-67
2024/02/20 07:10:19;;;;;;;1.93;1.10;;;8.20;99.90;;;-141.84;81.34;22509.69;5089814;28;20227;-67
2024/02/20 07:12:48;;;;;;;1.73;0.93;;;8.30;99.90;;;-141.84;80.89;21564.09;5089743;28;20219;-68
2024/02/20 07:15:16;;;;;;;1.93;1.07;;;8.20;99.90;;;-141.84;83.59;28856.13;5081365;28;20248;-69
2024/02/20 07:17:44;;;;;;;2.93;1.30;;;8.20;99.90;;;-141.84;88.29;57815.66;5090182;28;20299;-69
2024/02/20 07:20:13;;;;;;;5.33;1.30;;;8.20;99.90;;;-141.84;91.03;71234.38;5089423;28;20219;-69
2024/02/20 07:22:43;;;;;;;2.00;1.20;;;8.10;99.90;;;-141.84;94.74;84433.91;5089792;28;20253;-68
2024/02/20 07:25:18;;;;;;;3.47;1.57;;;8.00;99.90;;;-141.84;97.04;92374.47;5089831;28;20313;-68
2024/02/20 07:27:47;;;;;;;2.67;1.30;;;7.90;99.90;;;-141.84;98.68;97411.59;5089548;28;20232;-68
2024/02/20 07:30:16;;;;;;;2.27;1.57;;;7.90;99.90;;;-141.84;97.21;91844.63;5090666;28;20242;-68
2024/02/20 07:32:44;;;;;;;3.13;1.70;;;7.90;99.90;;;-141.84;100.00;99003.56;5094368;28;20204;-67
2024/02/20 07:35:17;;;;;;;2.93;1.40;;;7.80;99.90;;;-141.84;100.00;101392.69;5094848;28;20224;-67
2024/02/20 07:37:48;;;;;;;4.03;1.67;;;7.80;99.90;;;-141.84;99.75;99799.78;5092884;28;20220;-67
2024/02/20 07:40:17;;;;;;;6.50;1.90;;;7.80;99.90;;;-141.84;100.00;101392.69;5092809;28;20269;-67
2024/02/20 07:42:45;;;;;;;4.37;1.60;;;7.80;99.90;;;-141.84;100.00;103783.25;5087705;28;20315;-66
2024/02/20 07:45:14;;;;;;;3.53;1.90;;;7.90;99.90;;;-141.84;100.00;102986.25;5091930;28;20228;-67
2024/02/20 07:47:44;;;;;;;2.87;1.50;;;7.80;99.90;;;-141.84;100.00;102189.38;5094059;28;20641;-67
2024/02/20 07:50:13;;;;;;;3.33;1.80;;;7.90;99.90;;;-141.84;100.00;101392.69;5092488;28;20220;-67
2024/02/20 07:52:46;;;;;;;3.53;1.87;;;7.90;99.90;;;-141.84;97.48;93964.47;5094057;28;20227;-51
2024/02/20 07:55:17;;;;;;;3.10;1.77;;;8.00;99.90;;;-141.84;98.30;96881.06;5070167;28;20265;-51
2024/02/20 07:57:48;;;;;;;2.67;1.47;;;8.00;99.90;;;-141.84;98.29;95820.25;5097390;28;20215;-51
2024/02/20 08:00:17;;;;;;;3.83;1.63;;;8.00;99.90;;;-141.84;97.41;94494.59;5096964;28;20231;-54
2024/02/20 08:02:48;;;;;;;7.27;2.13;;;8.10;99.90;;;-141.84;95.22;89461.13;5097973;28;20218;-54
2024/02/20 08:05:16;;;;;;;4.97;2.40;;;8.10;99.90;;;-141.84;90.74;73079.69;5096942;28;20224;-51
2024/02/20 08:07:50;;;;;;;7.70;3.20;;;8.20;99.90;;;-141.84;91.71;76245.09;5097170;28;20258;-52
2024/02/20 08:10:20;;;;;;;9.17;3.10;;;8.20;99.90;;;-141.84;92.51;79148.88;5096846;28;20251;-54
2024/02/20 08:12:49;;;;;;;9.23;3.83;;;8.20;99.90;;;-141.84;88.16;62283.53;5097495;28;20227;-51
2024/02/20 08:15:18;;;;;;;5.97;3.67;;;8.30;99.90;;;-141.84;85.77;49681.28;5096645;28;20285;-52
2024/02/20 08:17:50;;;;;;;8.50;3.83;;;8.40;99.90;;;-141.84;82.15;25583.91;5097644;28;20200;-50
2024/02/20 08:20:18;;;;;;;9.00;3.40;;;8.50;99.90;;;-141.84;78.59;19257.00;5096870;28;20675;-66
2024/02/20 08:22:48;;;;;;;12.07;4.23;;;8.50;99.90;;;-141.84;78.68;19234.66;5097262;28;20288;-54
2024/02/20 08:25:16;;;;;;;9.60;3.43;;;8.60;99.90;;;-141.84;78.18;18968.47;5095958;28;20227;-54
2024/02/20 08:27:49;;;;;;;9.80;3.57;;;8.50;99.90;;;-141.84;78.12;18942.06;5096991;28;20230;-52
2024/02/20 08:30:22;;;;;;;9.53;3.30;;;8.60;99.90;;;-141.84;76.35;18570.22;5096769;28;20243;-53
2024/02/20 08:32:54;;;;;;;9.37;3.30;;;8.60;99.90;;;-141.84;75.70;18509.28;5090386;28;20275;-52
2024/02/20 08:35:26;;;;;;;10.43;4.20;;;8.70;99.90;;;-141.84;74.43;18320.34;5096830;28;20632;-54
2024/02/20 08:37:56;;;;;;;9.37;3.37;;;8.70;99.90;;;-141.84;74.24;18363.00;5061876;28;20216;-51
2024/02/20 08:40:28;;;;;;;13.70;3.90;;;8.80;99.90;;;-141.84;72.64;18273.63;5096094;28;20254;-52
2024/02/20 08:42:57;;;;;;;8.47;3.40;;;8.70;99.90;;;-141.84;72.30;18259.41;5096002;28;20663;-53
2024/02/20 08:45:28;;;;;;;10.30;3.17;;;8.90;99.90;;;-141.84;71.09;18251.28;5096117;28;20223;-53
2024/02/20 08:47:57;;;;;;;11.10;3.20;;;9.00;99.90;;;-141.84;68.71;18216.72;5096455;28;20598;-55
2024/02/20 08:50:28;;;;;;;11.33;2.87;;;9.20;99.90;;;-141.84;66.90;18186.25;5096892;28;20192;-54
2024/02/20 08:52:56;;;;;;;12.50;3.27;;;9.10;99.90;;;-141.84;66.73;18180.16;5095963;28;20583;-51
2024/02/20 08:55:28;;;;;;;7.77;3.30;;;9.20;99.90;;;-141.84;65.99;18192.34;5096333;28;20250;-54
2024/02/20 08:57:57;;;;;;;10.87;2.90;;;9.30;99.90;;;-141.84;65.07;18198.44;5096109;28;20218;-54
2024/02/20 09:00:28;;;;;;;9.00;2.90;;;9.40;99.90;;;-141.84;66.44;18245.19;5087912;28;20283;-54
2024/02/20 09:02:58;;;;;;;10.20;2.80;;;9.40;99.90;;;-141.84;64.46;18230.94;5096480;28;20219;-53
2024/02/20 09:05:28;;;;;;;12.20;3.30;;;9.40;99.90;;;-141.84;63.71;18216.72;5096297;28;20212;-56
2024/02/20 09:07:56;;;;;;;12.67;3.57;;;9.40;99.90;;;-141.84;64.42;18206.56;5095642;28;20278;-53
2024/02/20 09:10:28;;;;;;;9.30;2.37;;;9.50;99.90;;;-141.84;63.61;18265.50;5095926;28;20226;-56
2024/02/20 09:12:59;;;;;;;9.87;2.93;;;9.50;99.90;;;-141.84;61.59;18285.81;5095834;28;20224;-50
2024/02/20 09:15:28;;;;;;;11.77;3.17;;;9.60;99.90;;;-141.84;61.52;18241.13;5095971;28;20275;-55
2024/02/20 09:17:56;;;;;;;9.37;3.50;;;9.80;99.90;;;-141.84;61.88;18304.09;5096004;28;20234;-53
2024/02/20 09:20:28;;;;;;;13.13;2.50;;;9.90;99.90;;;-141.84;59.67;18302.06;5087735;28;20228;-53
2024/02/20 09:22:57;;;;;;;8.03;2.87;;;10.10;99.90;;;-141.84;58.44;18324.41;5094250;28;20216;-52
2024/02/20 09:25:28;;;;;;;12.97;3.23;;;10.40;99.90;;;-141.84;55.00;18391.44;5095446;28;20228;-67
2024/02/20 09:27:58;;;;;;;9.37;2.53;;;10.60;99.90;;;-141.84;53.03;18401.59;5094837;28;20247;-66
2024/02/20 09:30:28;;;;;;;10.80;2.63;;;10.80;99.90;;;-141.84;52.58;18405.66;5095842;28;20224;-66
2024/02/20 09:32:56;;;;;;;11.93;2.70;;;10.70;99.90;;;-141.84;52.92;18389.41;5042170;28;20231;-66
2024/02/20 09:35:28;;;;;;;10.23;2.93;;;10.50;99.90;;;-141.84;52.93;18419.88;5096008;28;20188;-66
2024/02/20 09:37:56;;;;;;;14.30;2.50;;;10.40;99.90;;;-141.84;54.30;18379.25;5043648;28;20224;-67
2024/02/20 09:40:28;;;;;;;7.30;2.23;;;10.30;99.90;;;-141.84;54.89;18371.13;5086969;28;20220;-67
2024/02/20 09:43:04;;;;;;;9.17;2.40;;;10.20;99.90;;;-141.84;53.89;18379.25;5094717;28;20216;-67
2024/02/20 09:45:41;;;;;;;11.47;2.63;;;10.30;99.90;;;-141.84;52.15;18462.56;5094969;28;20276;-67
2024/02/20 09:48:15;;;;;;;9.97;2.03;;;10.40;99.90;;;-141.84;51.71;18432.09;5088983;28;20636;-67
2024/02/20 09:50:52;;;;;;;8.50;2.30;;;10.60;99.90;;;-141.84;51.53;18440.22;5094353;28;20227;-49
2024/02/20 09:53:27;;;;;;;6.97;2.67;;;10.80;99.90;;;-141.84;50.24;18493.03;5094923;28;20295;-66
2024/02/20 09:55:58;;;;;;;10.30;2.77;;;10.90;99.90;;;-141.84;51.04;18513.34;5094890;28;20215;-66
2024/02/20 09:58:29;;;;;;;7.50;2.13;;;11.10;99.90;;;-141.84;49.42;18531.63;5095603;28;20230;-66
2024/02/20 10:01:09;;;;;;;7.10;2.40;;;11.20;99.90;;;-141.84;48.45;18562.09;5094974;28;20776;-68
2024/02/20 10:03:44;;;;;;;7.50;2.20;;;11.30;99.90;;;-141.84;47.67;18606.81;5087773;28;20226;-67
2024/02/20 10:06:19;;;;;;;7.47;2.03;;;11.40;99.90;;;-141.84;47.43;18594.63;5075895;28;20300;-65
2024/02/20 10:08:52;;;;;;;7.97;2.60;;;11.50;99.90;;;-141.84;46.91;18633.22;5095891;28;20232;-66
2024/02/20 10:11:20;;;;;;;8.93;2.55;;;11.70;99.90;;;-141.84;46.72;18665.72;5095293;28;20217;-65
2024/02/20 10:13:52;;;;;;;12.02;2.80;;;11.60;99.90;;;-141.84;46.00;18663.69;5094471;28;20858;-65
2024/02/20 10:16:20;;;;;;;9.33;2.70;;;11.60;99.90;;;-141.84;46.80;18669.78;5095210;28;20216;-66
2024/02/20 10:18:58;;;;;;;11.45;2.70;;;11.50;99.90;;;-141.84;47.22;18657.59;5089897;28;20231;-66